This is the latest recevied weather packets stored in our database for station/object DL4JCP-6. If no packets are shown the sender has not sent any weather packets the latest 10 day(s).
| Time | Temp. | Humidity | Pressure | Rain* | Wind** | Luminosity | Snow |
|---|---|---|---|---|---|---|---|
| 1777940295 | 12.22° C | 85% | 1013.6 hPa | 0 mm | - | - | - |
| 1777934894 | 12.78° C | 84% | 1014.1 hPa | 0 mm | - | - | - |
| 1777933994 | 12.78° C | 85% | 1014.1 hPa | 0 mm | - | - | - |
| 1777933094 | 12.78° C | 85% | 1014 hPa | 0 mm | - | - | - |
| 1777929494 | 12.78° C | 83% | 1014.1 hPa | 0 mm | - | - | - |
| 1777928596 | 12.78° C | 83% | 1014.2 hPa | 0 mm | - | - | - |
| 1777924993 | 13.33° C | 80% | 1014.1 hPa | 0 mm | - | - | - |
| 1777924093 | 13.33° C | 79% | 1014.1 hPa | 0 mm | - | - | - |
| 1777923193 | 13.89° C | 78% | 1014.2 hPa | 0 mm | - | - | - |
| 1777922293 | 14.44° C | 77% | 1014.1 hPa | 0 mm | - | - | - |
| 1777919593 | 15° C | 73% | 1013.5 hPa | 0 mm | - | - | - |
| 1777918693 | 15.56° C | 73% | 1013.4 hPa | 0 mm | - | - | - |
| 1777917792 | 15.56° C | 71% | 1013.3 hPa | 0 mm | - | - | - |
| 1777916895 | 17.22° C | 67% | 1013.4 hPa | 0 mm | - | - | - |
| 1777915995 | 17.78° C | 64% | 1013.6 hPa | 0 mm | - | - | - |
| 1777915092 | 18.33° C | 64% | 1013.5 hPa | 0 mm | - | - | - |
| 1777914195 | 18.33° C | 62% | 1013.6 hPa | 0 mm | - | - | - |
| 1777913292 | 18.89° C | 60% | 1013.7 hPa | 0 mm | - | - | - |
| 1777912395 | 19.44° C | 60% | 1013.7 hPa | 0 mm | - | - | - |
| 1777911492 | 20° C | 57% | 1013.8 hPa | 0 mm | - | - | - |
| 1777909692 | 20.56° C | 54% | 1014 hPa | 0 mm | - | - | - |
| 1777908792 | 21.11° C | 51% | 1014 hPa | 0 mm | - | - | - |
| 1777906994 | 21.67° C | 47% | 1014.1 hPa | 0 mm | - | - | - |
| 1777906092 | 21.11° C | 49% | 1014.1 hPa | 0 mm | - | - | - |
| 1777905191 | 20.56° C | 49% | 1014.1 hPa | 0 mm | - | - | - |
* Rain latest hour (hover to see other rain measurements)
** Current wind speed in m/s (hover to see current wind gust speed)